sensor_id;sensor_type;location;lat;lon;timestamp;P1;durP1;ratioP1;P2;durP2;ratioP2
36593;SDS011;22603;47.900;8.146;2023-12-29T00:00:41;5.93;;;2.10;;
36593;SDS011;22603;47.900;8.146;2023-12-29T00:03:29;4.57;;;1.80;;
36593;SDS011;22603;47.900;8.146;2023-12-29T00:06:16;7.40;;;2.13;;
36593;SDS011;22603;47.900;8.146;2023-12-29T00:09:02;5.60;;;2.07;;
36593;SDS011;22603;47.900;8.146;2023-12-29T00:11:49;4.80;;;1.90;;
36593;SDS011;22603;47.900;8.146;2023-12-29T00:14:39;4.63;;;2.00;;
36593;SDS011;22603;47.900;8.146;2023-12-29T00:17:27;4.53;;;1.70;;
36593;SDS011;22603;47.900;8.146;2023-12-29T00:20:15;6.33;;;1.97;;
36593;SDS011;22603;47.900;8.146;2023-12-29T00:23:21;4.43;;;1.80;;
36593;SDS011;22603;47.900;8.146;2023-12-29T00:26:07;6.00;;;2.27;;
36593;SDS011;22603;47.900;8.146;2023-12-29T00:28:54;4.67;;;1.80;;
36593;SDS011;22603;47.900;8.146;2023-12-29T00:31:41;4.43;;;1.83;;
36593;SDS011;22603;47.900;8.146;2023-12-29T00:34:29;5.13;;;2.07;;
36593;SDS011;22603;47.900;8.146;2023-12-29T00:37:17;4.17;;;1.60;;
36593;SDS011;22603;47.900;8.146;2023-12-29T00:40:04;6.70;;;2.20;;
36593;SDS011;22603;47.900;8.146;2023-12-29T00:42:54;4.77;;;1.80;;
36593;SDS011;22603;47.900;8.146;2023-12-29T00:45:41;5.17;;;2.13;;
36593;SDS011;22603;47.900;8.146;2023-12-29T00:48:28;5.20;;;1.80;;
36593;SDS011;22603;47.900;8.146;2023-12-29T00:51:16;3.90;;;1.70;;
36593;SDS011;22603;47.900;8.146;2023-12-29T00:54:04;7.50;;;2.30;;
36593;SDS011;22603;47.900;8.146;2023-12-29T00:56:50;6.90;;;2.10;;
36593;SDS011;22603;47.900;8.146;2023-12-29T00:59:37;5.43;;;2.10;;
36593;SDS011;22603;47.900;8.146;2023-12-29T01:02:25;5.20;;;1.83;;
36593;SDS011;22603;47.900;8.146;2023-12-29T01:05:14;4.67;;;2.00;;
36593;SDS011;22603;47.900;8.146;2023-12-29T01:08:04;5.83;;;2.10;;
36593;SDS011;22603;47.900;8.146;2023-12-29T01:10:51;4.90;;;1.97;;
36593;SDS011;22603;47.900;8.146;2023-12-29T01:13:37;7.97;;;2.30;;
36593;SDS011;22603;47.900;8.146;2023-12-29T01:16:24;5.77;;;2.00;;
36593;SDS011;22603;47.900;8.146;2023-12-29T01:19:12;4.53;;;1.80;;
36593;SDS011;22603;47.900;8.146;2023-12-29T01:21:59;5.47;;;1.73;;
36593;SDS011;22603;47.900;8.146;2023-12-29T01:24:47;4.80;;;2.00;;
36593;SDS011;22603;47.900;8.146;2023-12-29T01:27:34;6.73;;;2.50;;
36593;SDS011;22603;47.900;8.146;2023-12-29T01:30:21;7.97;;;2.03;;
36593;SDS011;22603;47.900;8.146;2023-12-29T01:33:09;5.33;;;2.17;;
36593;SDS011;22603;47.900;8.146;2023-12-29T01:35:56;7.27;;;2.23;;
36593;SDS011;22603;47.900;8.146;2023-12-29T01:38:49;5.40;;;1.90;;
36593;SDS011;22603;47.900;8.146;2023-12-29T01:41:37;5.23;;;2.20;;
36593;SDS011;22603;47.900;8.146;2023-12-29T01:44:24;7.70;;;1.63;;
36593;SDS011;22603;47.900;8.146;2023-12-29T01:47:11;5.47;;;1.93;;
36593;SDS011;22603;47.900;8.146;2023-12-29T01:50:01;6.63;;;2.10;;
36593;SDS011;22603;47.900;8.146;2023-12-29T01:52:49;4.50;;;1.70;;
36593;SDS011;22603;47.900;8.146;2023-12-29T01:55:38;4.73;;;2.03;;
36593;SDS011;22603;47.900;8.146;2023-12-29T01:58:27;5.50;;;1.90;;
36593;SDS011;22603;47.900;8.146;2023-12-29T02:01:14;4.63;;;1.70;;
36593;SDS011;22603;47.900;8.146;2023-12-29T02:04:01;5.50;;;2.30;;
36593;SDS011;22603;47.900;8.146;2023-12-29T02:06:48;6.20;;;2.23;;
36593;SDS011;22603;47.900;8.146;2023-12-29T02:09:35;6.00;;;2.60;;
36593;SDS011;22603;47.900;8.146;2023-12-29T02:12:23;5.93;;;1.80;;
36593;SDS011;22603;47.900;8.146;2023-12-29T02:15:12;5.47;;;2.10;;
36593;SDS011;22603;47.900;8.146;2023-12-29T02:17:59;6.80;;;2.63;;
36593;SDS011;22603;47.900;8.146;2023-12-29T02:20:52;6.83;;;2.00;;
36593;SDS011;22603;47.900;8.146;2023-12-29T02:23:38;7.13;;;2.20;;
36593;SDS011;22603;47.900;8.146;2023-12-29T02:26:27;7.37;;;2.07;;
36593;SDS011;22603;47.900;8.146;2023-12-29T02:29:18;6.17;;;2.53;;
36593;SDS011;22603;47.900;8.146;2023-12-29T02:32:07;5.47;;;2.20;;
36593;SDS011;22603;47.900;8.146;2023-12-29T02:34:58;5.83;;;2.47;;
36593;SDS011;22603;47.900;8.146;2023-12-29T02:37:47;4.33;;;1.90;;
36593;SDS011;22603;47.900;8.146;2023-12-29T02:40:35;5.17;;;2.33;;
36593;SDS011;22603;47.900;8.146;2023-12-29T02:43:24;6.50;;;2.30;;
36593;SDS011;22603;47.900;8.146;2023-12-29T02:46:10;7.10;;;2.13;;
36593;SDS011;22603;47.900;8.146;2023-12-29T02:48:57;5.47;;;1.80;;
36593;SDS011;22603;47.900;8.146;2023-12-29T02:51:45;3.73;;;1.60;;
36593;SDS011;22603;47.900;8.146;2023-12-29T02:54:35;6.00;;;1.90;;
36593;SDS011;22603;47.900;8.146;2023-12-29T02:57:22;5.93;;;2.20;;
36593;SDS011;22603;47.900;8.146;2023-12-29T03:00:11;8.33;;;2.30;;
36593;SDS011;22603;47.900;8.146;2023-12-29T03:02:58;5.47;;;2.20;;
36593;SDS011;22603;47.900;8.146;2023-12-29T03:05:46;8.60;;;2.40;;
36593;SDS011;22603;47.900;8.146;2023-12-29T03:08:32;5.90;;;2.10;;
36593;SDS011;22603;47.900;8.146;2023-12-29T03:11:19;5.80;;;2.17;;
36593;SDS011;22603;47.900;8.146;2023-12-29T03:14:06;6.83;;;2.23;;
36593;SDS011;22603;47.900;8.146;2023-12-29T03:16:54;5.13;;;1.87;;
36593;SDS011;22603;47.900;8.146;2023-12-29T03:19:41;2.13;;;1.23;;
36593;SDS011;22603;47.900;8.146;2023-12-29T03:22:28;6.67;;;2.43;;
36593;SDS011;22603;47.900;8.146;2023-12-29T03:25:15;7.20;;;2.57;;
36593;SDS011;22603;47.900;8.146;2023-12-29T03:28:02;5.57;;;1.97;;
36593;SDS011;22603;47.900;8.146;2023-12-29T03:30:49;6.07;;;1.60;;
36593;SDS011;22603;47.900;8.146;2023-12-29T03:33:37;9.23;;;2.03;;
36593;SDS011;22603;47.900;8.146;2023-12-29T03:36:25;4.50;;;2.10;;
36593;SDS011;22603;47.900;8.146;2023-12-29T03:39:11;6.20;;;2.30;;
36593;SDS011;22603;47.900;8.146;2023-12-29T03:41:58;4.23;;;2.00;;
36593;SDS011;22603;47.900;8.146;2023-12-29T03:44:45;4.60;;;1.83;;
36593;SDS011;22603;47.900;8.146;2023-12-29T03:47:31;4.77;;;1.60;;
36593;SDS011;22603;47.900;8.146;2023-12-29T03:50:20;5.87;;;1.90;;
36593;SDS011;22603;47.900;8.146;2023-12-29T03:53:06;3.87;;;1.67;;
36593;SDS011;22603;47.900;8.146;2023-12-29T03:55:53;4.93;;;1.83;;
36593;SDS011;22603;47.900;8.146;2023-12-29T03:58:40;3.83;;;1.73;;
36593;SDS011;22603;47.900;8.146;2023-12-29T04:01:27;4.83;;;1.83;;
36593;SDS011;22603;47.900;8.146;2023-12-29T04:04:14;5.30;;;2.00;;
36593;SDS011;22603;47.900;8.146;2023-12-29T04:07:02;5.47;;;1.80;;
36593;SDS011;22603;47.900;8.146;2023-12-29T04:09:49;4.80;;;1.70;;
36593;SDS011;22603;47.900;8.146;2023-12-29T04:12:35;3.70;;;1.53;;
36593;SDS011;22603;47.900;8.146;2023-12-29T04:15:22;4.10;;;1.43;;
36593;SDS011;22603;47.900;8.146;2023-12-29T04:18:09;3.67;;;1.33;;
36593;SDS011;22603;47.900;8.146;2023-12-29T04:20:56;6.00;;;1.77;;
36593;SDS011;22603;47.900;8.146;2023-12-29T04:23:44;5.77;;;1.33;;
36593;SDS011;22603;47.900;8.146;2023-12-29T04:26:34;3.03;;;1.30;;
36593;SDS011;22603;47.900;8.146;2023-12-29T04:29:22;4.20;;;1.60;;
36593;SDS011;22603;47.900;8.146;2023-12-29T04:32:08;2.40;;;1.20;;
36593;SDS011;22603;47.900;8.146;2023-12-29T04:34:55;1.43;;;1.00;;
36593;SDS011;22603;47.900;8.146;2023-12-29T04:37:43;4.60;;;1.37;;
36593;SDS011;22603;47.900;8.146;2023-12-29T04:40:32;2.37;;;1.27;;
36593;SDS011;22603;47.900;8.146;2023-12-29T04:43:19;2.43;;;1.00;;
36593;SDS011;22603;47.900;8.146;2023-12-29T04:46:05;2.27;;;0.93;;
36593;SDS011;22603;47.900;8.146;2023-12-29T04:48:52;3.03;;;1.20;;
36593;SDS011;22603;47.900;8.146;2023-12-29T04:51:39;3.47;;;1.40;;
36593;SDS011;22603;47.900;8.146;2023-12-29T04:54:26;3.63;;;1.27;;
36593;SDS011;22603;47.900;8.146;2023-12-29T04:57:14;4.17;;;1.33;;
36593;SDS011;22603;47.900;8.146;2023-12-29T05:00:00;3.73;;;1.20;;
36593;SDS011;22603;47.900;8.146;2023-12-29T05:02:47;3.23;;;1.40;;
36593;SDS011;22603;47.900;8.146;2023-12-29T05:05:34;2.93;;;1.23;;
36593;SDS011;22603;47.900;8.146;2023-12-29T05:08:21;2.97;;;1.20;;
36593;SDS011;22603;47.900;8.146;2023-12-29T05:11:08;1.20;;;0.80;;
36593;SDS011;22603;47.900;8.146;2023-12-29T05:13:57;2.40;;;1.20;;
36593;SDS011;22603;47.900;8.146;2023-12-29T05:16:43;2.17;;;0.87;;
36593;SDS011;22603;47.900;8.146;2023-12-29T05:19:30;1.17;;;0.70;;
36593;SDS011;22603;47.900;8.146;2023-12-29T05:22:17;5.07;;;1.07;;
36593;SDS011;22603;47.900;8.146;2023-12-29T05:25:04;2.77;;;0.80;;
36593;SDS011;22603;47.900;8.146;2023-12-29T05:27:52;3.83;;;1.13;;
36593;SDS011;22603;47.900;8.146;2023-12-29T05:30:39;1.97;;;0.90;;
36593;SDS011;22603;47.900;8.146;2023-12-29T05:33:26;3.03;;;1.30;;
36593;SDS011;22603;47.900;8.146;2023-12-29T05:36:13;1.77;;;1.00;;
36593;SDS011;22603;47.900;8.146;2023-12-29T05:39:00;3.30;;;0.87;;
36593;SDS011;22603;47.900;8.146;2023-12-29T05:41:47;2.73;;;1.10;;
36593;SDS011;22603;47.900;8.146;2023-12-29T05:44:35;1.23;;;0.83;;
36593;SDS011;22603;47.900;8.146;2023-12-29T05:47:23;2.17;;;0.97;;
36593;SDS011;22603;47.900;8.146;2023-12-29T05:50:11;1.90;;;0.83;;
36593;SDS011;22603;47.900;8.146;2023-12-29T05:52:58;1.87;;;0.90;;
36593;SDS011;22603;47.900;8.146;2023-12-29T05:55:44;1.90;;;1.00;;
36593;SDS011;22603;47.900;8.146;2023-12-29T05:58:31;2.30;;;1.07;;
36593;SDS011;22603;47.900;8.146;2023-12-29T06:01:19;3.60;;;1.00;;
36593;SDS011;22603;47.900;8.146;2023-12-29T06:04:08;2.33;;;1.17;;
36593;SDS011;22603;47.900;8.146;2023-12-29T06:06:55;0.87;;;0.77;;
36593;SDS011;22603;47.900;8.146;2023-12-29T06:09:42;3.60;;;1.30;;
36593;SDS011;22603;47.900;8.146;2023-12-29T06:12:29;1.43;;;0.83;;
36593;SDS011;22603;47.900;8.146;2023-12-29T06:15:16;1.47;;;0.80;;
36593;SDS011;22603;47.900;8.146;2023-12-29T06:18:03;2.70;;;1.30;;
36593;SDS011;22603;47.900;8.146;2023-12-29T06:20:52;2.80;;;1.30;;
36593;SDS011;22603;47.900;8.146;2023-12-29T06:23:39;1.20;;;0.80;;
36593;SDS011;22603;47.900;8.146;2023-12-29T06:26:28;3.10;;;0.90;;
36593;SDS011;22603;47.900;8.146;2023-12-29T06:29:15;2.67;;;1.20;;
36593;SDS011;22603;47.900;8.146;2023-12-29T06:32:02;1.73;;;1.10;;
36593;SDS011;22603;47.900;8.146;2023-12-29T06:34:50;2.90;;;1.00;;
36593;SDS011;22603;47.900;8.146;2023-12-29T06:37:38;2.70;;;1.10;;
36593;SDS011;22603;47.900;8.146;2023-12-29T06:40:25;1.53;;;0.83;;
36593;SDS011;22603;47.900;8.146;2023-12-29T06:43:12;1.27;;;0.80;;
36593;SDS011;22603;47.900;8.146;2023-12-29T06:45:59;3.00;;;1.03;;
36593;SDS011;22603;47.900;8.146;2023-12-29T06:48:46;1.37;;;0.83;;
36593;SDS011;22603;47.900;8.146;2023-12-29T06:51:34;3.00;;;1.40;;
36593;SDS011;22603;47.900;8.146;2023-12-29T06:54:25;2.53;;;1.30;;
36593;SDS011;22603;47.900;8.146;2023-12-29T06:57:12;3.87;;;1.20;;
36593;SDS011;22603;47.900;8.146;2023-12-29T07:00:02;2.30;;;1.00;;
36593;SDS011;22603;47.900;8.146;2023-12-29T07:02:49;1.77;;;0.70;;
36593;SDS011;22603;47.900;8.146;2023-12-29T07:05:36;1.67;;;0.87;;
36593;SDS011;22603;47.900;8.146;2023-12-29T07:08:23;1.40;;;0.70;;
36593;SDS011;22603;47.900;8.146;2023-12-29T07:11:12;1.10;;;0.83;;
36593;SDS011;22603;47.900;8.146;2023-12-29T07:13:59;1.47;;;0.90;;
36593;SDS011;22603;47.900;8.146;2023-12-29T07:16:46;1.23;;;0.50;;
36593;SDS011;22603;47.900;8.146;2023-12-29T07:19:33;1.23;;;0.67;;
36593;SDS011;22603;47.900;8.146;2023-12-29T07:22:22;1.47;;;0.70;;
36593;SDS011;22603;47.900;8.146;2023-12-29T07:25:09;0.67;;;0.67;;
36593;SDS011;22603;47.900;8.146;2023-12-29T07:27:59;1.03;;;0.70;;
36593;SDS011;22603;47.900;8.146;2023-12-29T07:30:46;2.70;;;1.13;;
36593;SDS011;22603;47.900;8.146;2023-12-29T07:33:33;2.87;;;1.00;;
36593;SDS011;22603;47.900;8.146;2023-12-29T07:36:21;3.37;;;1.10;;
36593;SDS011;22603;47.900;8.146;2023-12-29T07:39:08;1.27;;;0.90;;
36593;SDS011;22603;47.900;8.146;2023-12-29T07:41:55;1.67;;;0.80;;
36593;SDS011;22603;47.900;8.146;2023-12-29T07:44:43;2.30;;;0.90;;
36593;SDS011;22603;47.900;8.146;2023-12-29T07:47:30;3.33;;;1.23;;
36593;SDS011;22603;47.900;8.146;2023-12-29T07:50:17;1.33;;;0.90;;
36593;SDS011;22603;47.900;8.146;2023-12-29T07:53:04;2.70;;;0.90;;
36593;SDS011;22603;47.900;8.146;2023-12-29T07:55:50;3.13;;;1.07;;
36593;SDS011;22603;47.900;8.146;2023-12-29T07:58:38;2.90;;;1.03;;
36593;SDS011;22603;47.900;8.146;2023-12-29T08:01:31;2.03;;;0.80;;
36593;SDS011;22603;47.900;8.146;2023-12-29T08:04:18;1.63;;;0.70;;
36593;SDS011;22603;47.900;8.146;2023-12-29T08:07:05;2.93;;;1.23;;
36593;SDS011;22603;47.900;8.146;2023-12-29T08:09:52;1.27;;;0.90;;
36593;SDS011;22603;47.900;8.146;2023-12-29T08:12:39;2.23;;;0.70;;
36593;SDS011;22603;47.900;8.146;2023-12-29T08:15:25;0.50;;;0.50;;
36593;SDS011;22603;47.900;8.146;2023-12-29T08:18:13;1.47;;;0.80;;
36593;SDS011;22603;47.900;8.146;2023-12-29T08:21:00;1.70;;;0.73;;
36593;SDS011;22603;47.900;8.146;2023-12-29T08:23:48;0.97;;;0.60;;
36593;SDS011;22603;47.900;8.146;2023-12-29T08:26:41;1.40;;;0.77;;
36593;SDS011;22603;47.900;8.146;2023-12-29T08:29:30;1.90;;;0.70;;
36593;SDS011;22603;47.900;8.146;2023-12-29T08:32:16;0.97;;;0.70;;
36593;SDS011;22603;47.900;8.146;2023-12-29T08:35:05;1.03;;;0.80;;
36593;SDS011;22603;47.900;8.146;2023-12-29T08:37:52;2.93;;;0.97;;
36593;SDS011;22603;47.900;8.146;2023-12-29T08:40:39;2.13;;;0.80;;
36593;SDS011;22603;47.900;8.146;2023-12-29T08:43:26;1.67;;;0.73;;
36593;SDS011;22603;47.900;8.146;2023-12-29T08:46:13;1.30;;;0.70;;
36593;SDS011;22603;47.900;8.146;2023-12-29T08:49:00;0.87;;;0.70;;
36593;SDS011;22603;47.900;8.146;2023-12-29T08:51:49;0.57;;;0.57;;
36593;SDS011;22603;47.900;8.146;2023-12-29T08:54:36;0.83;;;0.73;;
36593;SDS011;22603;47.900;8.146;2023-12-29T08:57:22;1.40;;;0.73;;
36593;SDS011;22603;47.900;8.146;2023-12-29T09:00:09;0.70;;;0.57;;
36593;SDS011;22603;47.900;8.146;2023-12-29T09:02:57;1.27;;;0.60;;
36593;SDS011;22603;47.900;8.146;2023-12-29T09:05:44;1.07;;;0.60;;
36593;SDS011;22603;47.900;8.146;2023-12-29T09:08:32;1.40;;;0.83;;
36593;SDS011;22603;47.900;8.146;2023-12-29T09:11:19;0.87;;;0.60;;
36593;SDS011;22603;47.900;8.146;2023-12-29T09:14:07;1.90;;;0.80;;
36593;SDS011;22603;47.900;8.146;2023-12-29T09:16:53;0.80;;;0.60;;
36593;SDS011;22603;47.900;8.146;2023-12-29T09:19:40;1.67;;;0.70;;
36593;SDS011;22603;47.900;8.146;2023-12-29T09:22:30;0.73;;;0.70;;
36593;SDS011;22603;47.900;8.146;2023-12-29T09:25:18;0.50;;;0.50;;
36593;SDS011;22603;47.900;8.146;2023-12-29T09:28:05;0.50;;;0.50;;
36593;SDS011;22603;47.900;8.146;2023-12-29T09:30:52;0.53;;;0.50;;
36593;SDS011;22603;47.900;8.146;2023-12-29T09:33:38;1.90;;;0.77;;
36593;SDS011;22603;47.900;8.146;2023-12-29T09:36:25;1.63;;;0.83;;
36593;SDS011;22603;47.900;8.146;2023-12-29T09:39:11;1.70;;;0.90;;
36593;SDS011;22603;47.900;8.146;2023-12-29T09:41:59;2.80;;;1.00;;
36593;SDS011;22603;47.900;8.146;2023-12-29T09:44:49;1.93;;;0.70;;
36593;SDS011;22603;47.900;8.146;2023-12-29T09:47:38;1.83;;;0.90;;
36593;SDS011;22603;47.900;8.146;2023-12-29T09:50:28;1.67;;;0.83;;
36593;SDS011;22603;47.900;8.146;2023-12-29T09:53:18;2.40;;;1.07;;
36593;SDS011;22603;47.900;8.146;2023-12-29T09:56:07;1.30;;;0.70;;
36593;SDS011;22603;47.900;8.146;2023-12-29T09:58:56;1.13;;;0.50;;
36593;SDS011;22603;47.900;8.146;2023-12-29T10:01:43;1.93;;;0.70;;
36593;SDS011;22603;47.900;8.146;2023-12-29T10:04:32;3.07;;;1.20;;
36593;SDS011;22603;47.900;8.146;2023-12-29T10:07:23;1.43;;;0.70;;
36593;SDS011;22603;47.900;8.146;2023-12-29T10:10:14;1.70;;;0.60;;
36593;SDS011;22603;47.900;8.146;2023-12-29T10:13:03;1.07;;;0.60;;
36593;SDS011;22603;47.900;8.146;2023-12-29T10:15:55;1.80;;;0.80;;
36593;SDS011;22603;47.900;8.146;2023-12-29T10:18:52;1.23;;;0.50;;
36593;SDS011;22603;47.900;8.146;2023-12-29T10:21:48;0.83;;;0.77;;
36593;SDS011;22603;47.900;8.146;2023-12-29T10:24:42;1.57;;;0.70;;
36593;SDS011;22603;47.900;8.146;2023-12-29T10:27:31;3.23;;;0.80;;
36593;SDS011;22603;47.900;8.146;2023-12-29T10:30:18;1.50;;;0.97;;
36593;SDS011;22603;47.900;8.146;2023-12-29T10:33:22;1.87;;;0.90;;
36593;SDS011;22603;47.900;8.146;2023-12-29T10:36:10;1.93;;;1.10;;
36593;SDS011;22603;47.900;8.146;2023-12-29T10:39:05;2.30;;;1.07;;
36593;SDS011;22603;47.900;8.146;2023-12-29T10:42:02;2.97;;;1.30;;
36593;SDS011;22603;47.900;8.146;2023-12-29T10:44:53;1.43;;;0.90;;
36593;SDS011;22603;47.900;8.146;2023-12-29T10:47:51;1.63;;;0.80;;
36593;SDS011;22603;47.900;8.146;2023-12-29T10:50:46;0.83;;;0.60;;
36593;SDS011;22603;47.900;8.146;2023-12-29T10:53:33;3.10;;;0.83;;
36593;SDS011;22603;47.900;8.146;2023-12-29T10:56:25;3.27;;;1.03;;
36593;SDS011;22603;47.900;8.146;2023-12-29T10:59:16;2.40;;;0.90;;
36593;SDS011;22603;47.900;8.146;2023-12-29T11:02:03;2.67;;;1.13;;
36593;SDS011;22603;47.900;8.146;2023-12-29T11:04:51;1.13;;;0.70;;
36593;SDS011;22603;47.900;8.146;2023-12-29T11:07:48;3.17;;;0.80;;
36593;SDS011;22603;47.900;8.146;2023-12-29T11:10:38;1.23;;;0.80;;
36593;SDS011;22603;47.900;8.146;2023-12-29T11:13:25;0.83;;;0.60;;
36593;SDS011;22603;47.900;8.146;2023-12-29T11:16:19;1.37;;;0.83;;
36593;SDS011;22603;47.900;8.146;2023-12-29T11:19:08;1.13;;;0.73;;
36593;SDS011;22603;47.900;8.146;2023-12-29T11:22:02;2.20;;;0.93;;
36593;SDS011;22603;47.900;8.146;2023-12-29T11:24:58;0.77;;;0.50;;
36593;SDS011;22603;47.900;8.146;2023-12-29T11:27:48;1.10;;;0.70;;
36593;SDS011;22603;47.900;8.146;2023-12-29T11:30:37;1.37;;;0.83;;
36593;SDS011;22603;47.900;8.146;2023-12-29T11:33:26;1.97;;;0.90;;
36593;SDS011;22603;47.900;8.146;2023-12-29T11:36:18;2.87;;;0.90;;
36593;SDS011;22603;47.900;8.146;2023-12-29T11:39:21;0.67;;;0.60;;
36593;SDS011;22603;47.900;8.146;2023-12-29T11:42:19;1.83;;;0.80;;
36593;SDS011;22603;47.900;8.146;2023-12-29T11:45:23;1.50;;;0.83;;
36593;SDS011;22603;47.900;8.146;2023-12-29T11:48:12;4.20;;;0.90;;
36593;SDS011;22603;47.900;8.146;2023-12-29T11:51:27;1.97;;;0.80;;
36593;SDS011;22603;47.900;8.146;2023-12-29T11:54:21;2.50;;;0.90;;
36593;SDS011;22603;47.900;8.146;2023-12-29T11:57:08;1.97;;;0.90;;
36593;SDS011;22603;47.900;8.146;2023-12-29T11:59:56;1.63;;;0.90;;
36593;SDS011;22603;47.900;8.146;2023-12-29T12:02:46;2.53;;;1.00;;
36593;SDS011;22603;47.900;8.146;2023-12-29T12:05:44;2.00;;;1.00;;
36593;SDS011;22603;47.900;8.146;2023-12-29T12:08:36;1.73;;;0.80;;
36593;SDS011;22603;47.900;8.146;2023-12-29T12:11:41;1.67;;;0.70;;
36593;SDS011;22603;47.900;8.146;2023-12-29T12:14:46;1.47;;;0.70;;
36593;SDS011;22603;47.900;8.146;2023-12-29T12:17:45;5.60;;;0.80;;
36593;SDS011;22603;47.900;8.146;2023-12-29T12:20:40;0.77;;;0.60;;
36593;SDS011;22603;47.900;8.146;2023-12-29T12:23:27;1.17;;;0.80;;
36593;SDS011;22603;47.900;8.146;2023-12-29T12:26:19;2.27;;;1.00;;
36593;SDS011;22603;47.900;8.146;2023-12-29T12:29:09;3.50;;;1.07;;
36593;SDS011;22603;47.900;8.146;2023-12-29T12:32:00;2.33;;;0.83;;
36593;SDS011;22603;47.900;8.146;2023-12-29T12:34:47;1.83;;;0.90;;
36593;SDS011;22603;47.900;8.146;2023-12-29T12:37:36;1.23;;;0.80;;
36593;SDS011;22603;47.900;8.146;2023-12-29T12:40:26;2.30;;;0.90;;
36593;SDS011;22603;47.900;8.146;2023-12-29T12:43:14;4.10;;;1.10;;
36593;SDS011;22603;47.900;8.146;2023-12-29T12:46:03;0.67;;;0.60;;
36593;SDS011;22603;47.900;8.146;2023-12-29T12:48:58;1.63;;;0.77;;
36593;SDS011;22603;47.900;8.146;2023-12-29T12:51:47;1.83;;;0.80;;
36593;SDS011;22603;47.900;8.146;2023-12-29T12:54:37;1.57;;;0.80;;
36593;SDS011;22603;47.900;8.146;2023-12-29T12:57:24;1.53;;;0.80;;
36593;SDS011;22603;47.900;8.146;2023-12-29T13:00:14;1.63;;;0.93;;
36593;SDS011;22603;47.900;8.146;2023-12-29T13:03:04;4.67;;;0.90;;
36593;SDS011;22603;47.900;8.146;2023-12-29T13:05:52;2.50;;;0.70;;
36593;SDS011;22603;47.900;8.146;2023-12-29T13:08:40;4.47;;;0.80;;
36593;SDS011;22603;47.900;8.146;2023-12-29T13:11:31;1.63;;;0.70;;
36593;SDS011;22603;47.900;8.146;2023-12-29T13:14:21;2.37;;;1.13;;
36593;SDS011;22603;47.900;8.146;2023-12-29T13:17:08;2.63;;;1.10;;
36593;SDS011;22603;47.900;8.146;2023-12-29T13:19:57;1.63;;;0.80;;
36593;SDS011;22603;47.900;8.146;2023-12-29T13:22:47;1.33;;;0.63;;
36593;SDS011;22603;47.900;8.146;2023-12-29T13:25:35;2.87;;;1.00;;
36593;SDS011;22603;47.900;8.146;2023-12-29T13:28:22;2.40;;;1.00;;
36593;SDS011;22603;47.900;8.146;2023-12-29T13:31:10;2.20;;;0.80;;
36593;SDS011;22603;47.900;8.146;2023-12-29T13:33:59;0.80;;;0.67;;
36593;SDS011;22603;47.900;8.146;2023-12-29T13:36:50;1.63;;;0.83;;
36593;SDS011;22603;47.900;8.146;2023-12-29T13:39:42;3.67;;;1.00;;
36593;SDS011;22603;47.900;8.146;2023-12-29T13:42:32;1.60;;;0.80;;
36593;SDS011;22603;47.900;8.146;2023-12-29T13:45:20;1.50;;;0.80;;
36593;SDS011;22603;47.900;8.146;2023-12-29T13:48:07;1.27;;;0.77;;
36593;SDS011;22603;47.900;8.146;2023-12-29T13:50:56;1.00;;;0.70;;
36593;SDS011;22603;47.900;8.146;2023-12-29T13:53:43;1.53;;;0.80;;
36593;SDS011;22603;47.900;8.146;2023-12-29T13:56:31;1.63;;;0.97;;
36593;SDS011;22603;47.900;8.146;2023-12-29T13:59:18;0.83;;;0.47;;
36593;SDS011;22603;47.900;8.146;2023-12-29T14:02:18;0.60;;;0.60;;
36593;SDS011;22603;47.900;8.146;2023-12-29T14:05:11;2.67;;;0.80;;
36593;SDS011;22603;47.900;8.146;2023-12-29T14:08:07;2.47;;;1.20;;
36593;SDS011;22603;47.900;8.146;2023-12-29T14:10:56;1.50;;;0.93;;
36593;SDS011;22603;47.900;8.146;2023-12-29T14:13:44;1.00;;;0.90;;
36593;SDS011;22603;47.900;8.146;2023-12-29T14:16:38;2.97;;;1.10;;
36593;SDS011;22603;47.900;8.146;2023-12-29T14:19:25;4.53;;;0.80;;
36593;SDS011;22603;47.900;8.146;2023-12-29T14:22:20;1.30;;;0.77;;
36593;SDS011;22603;47.900;8.146;2023-12-29T14:25:08;0.60;;;0.60;;
36593;SDS011;22603;47.900;8.146;2023-12-29T14:27:58;1.20;;;0.80;;
36593;SDS011;22603;47.900;8.146;2023-12-29T14:30:47;1.83;;;1.10;;
36593;SDS011;22603;47.900;8.146;2023-12-29T14:33:33;3.30;;;0.77;;
36593;SDS011;22603;47.900;8.146;2023-12-29T14:36:21;1.67;;;0.90;;
36593;SDS011;22603;47.900;8.146;2023-12-29T14:39:08;2.20;;;1.20;;
36593;SDS011;22603;47.900;8.146;2023-12-29T14:41:56;1.97;;;1.03;;
36593;SDS011;22603;47.900;8.146;2023-12-29T14:44:45;2.33;;;0.90;;
36593;SDS011;22603;47.900;8.146;2023-12-29T14:47:34;1.57;;;1.07;;
36593;SDS011;22603;47.900;8.146;2023-12-29T14:50:22;2.87;;;1.20;;
36593;SDS011;22603;47.900;8.146;2023-12-29T14:53:09;2.73;;;0.90;;
36593;SDS011;22603;47.900;8.146;2023-12-29T14:55:57;1.30;;;0.80;;
36593;SDS011;22603;47.900;8.146;2023-12-29T14:58:43;1.40;;;0.90;;
36593;SDS011;22603;47.900;8.146;2023-12-29T15:01:31;1.23;;;0.80;;
36593;SDS011;22603;47.900;8.146;2023-12-29T15:04:19;2.40;;;1.10;;
36593;SDS011;22603;47.900;8.146;2023-12-29T15:07:07;1.97;;;1.10;;
36593;SDS011;22603;47.900;8.146;2023-12-29T15:09:54;1.00;;;0.80;;
36593;SDS011;22603;47.900;8.146;2023-12-29T15:12:40;2.47;;;1.03;;
36593;SDS011;22603;47.900;8.146;2023-12-29T15:15:28;2.03;;;0.90;;
36593;SDS011;22603;47.900;8.146;2023-12-29T15:18:15;1.50;;;1.03;;
36593;SDS011;22603;47.900;8.146;2023-12-29T15:21:04;2.07;;;0.80;;
36593;SDS011;22603;47.900;8.146;2023-12-29T15:23:51;0.90;;;0.70;;
36593;SDS011;22603;47.900;8.146;2023-12-29T15:26:39;2.13;;;1.00;;
36593;SDS011;22603;47.900;8.146;2023-12-29T15:29:26;1.30;;;0.90;;
36593;SDS011;22603;47.900;8.146;2023-12-29T15:32:16;2.83;;;1.07;;
36593;SDS011;22603;47.900;8.146;2023-12-29T15:35:03;2.67;;;1.10;;
36593;SDS011;22603;47.900;8.146;2023-12-29T15:37:53;3.87;;;1.07;;
36593;SDS011;22603;47.900;8.146;2023-12-29T15:40:40;1.20;;;0.87;;
36593;SDS011;22603;47.900;8.146;2023-12-29T15:43:27;1.57;;;0.77;;
36593;SDS011;22603;47.900;8.146;2023-12-29T15:46:14;2.17;;;1.00;;
36593;SDS011;22603;47.900;8.146;2023-12-29T15:49:01;1.10;;;0.80;;
36593;SDS011;22603;47.900;8.146;2023-12-29T15:51:49;2.53;;;1.13;;
36593;SDS011;22603;47.900;8.146;2023-12-29T15:54:38;1.57;;;0.70;;
36593;SDS011;22603;47.900;8.146;2023-12-29T15:57:24;1.70;;;0.80;;
36593;SDS011;22603;47.900;8.146;2023-12-29T16:00:11;0.77;;;0.70;;
36593;SDS011;22603;47.900;8.146;2023-12-29T16:02:59;3.27;;;1.00;;
36593;SDS011;22603;47.900;8.146;2023-12-29T16:05:48;1.20;;;0.80;;
36593;SDS011;22603;47.900;8.146;2023-12-29T16:08:34;2.20;;;0.90;;
36593;SDS011;22603;47.900;8.146;2023-12-29T16:11:24;2.03;;;0.87;;
36593;SDS011;22603;47.900;8.146;2023-12-29T16:14:12;2.03;;;0.90;;
36593;SDS011;22603;47.900;8.146;2023-12-29T16:16:58;2.77;;;0.90;;
36593;SDS011;22603;47.900;8.146;2023-12-29T16:19:45;1.50;;;0.83;;
36593;SDS011;22603;47.900;8.146;2023-12-29T16:22:32;1.97;;;0.90;;
36593;SDS011;22603;47.900;8.146;2023-12-29T16:25:19;1.20;;;0.90;;
36593;SDS011;22603;47.900;8.146;2023-12-29T16:28:08;1.90;;;0.97;;
36593;SDS011;22603;47.900;8.146;2023-12-29T16:30:54;1.13;;;0.80;;
36593;SDS011;22603;47.900;8.146;2023-12-29T16:33:42;1.13;;;0.73;;
36593;SDS011;22603;47.900;8.146;2023-12-29T16:36:29;1.93;;;1.20;;
36593;SDS011;22603;47.900;8.146;2023-12-29T16:39:16;0.70;;;0.60;;
36593;SDS011;22603;47.900;8.146;2023-12-29T16:42:03;0.83;;;0.67;;
36593;SDS011;22603;47.900;8.146;2023-12-29T16:44:51;3.77;;;0.90;;
36593;SDS011;22603;47.900;8.146;2023-12-29T16:47:38;0.90;;;0.80;;
36593;SDS011;22603;47.900;8.146;2023-12-29T16:50:27;2.30;;;0.87;;
36593;SDS011;22603;47.900;8.146;2023-12-29T16:53:14;3.50;;;0.80;;
36593;SDS011;22603;47.900;8.146;2023-12-29T16:56:00;1.70;;;0.80;;